createdAt,value
2022-09-20T00:01:22.469Z,99583.89
2022-09-20T00:03:53.520Z,99583.66
2022-09-20T00:06:24.504Z,99589.64
2022-09-20T00:08:53.835Z,99593.55
2022-09-20T00:11:24.707Z,99594.38
2022-09-20T00:13:55.584Z,99595.83
2022-09-20T00:16:26.924Z,99594.22
2022-09-20T00:18:57.906Z,99596.73
2022-09-20T00:21:30.109Z,99592.49
2022-09-20T00:23:58.391Z,99592.71
2022-09-20T00:26:27.642Z,99591.42
2022-09-20T00:28:57.465Z,99592.57
2022-09-20T00:31:26.353Z,99590.80
2022-09-20T00:34:14.989Z,99592.15
2022-09-20T00:36:44.711Z,99593.86
2022-09-20T00:39:15.951Z,99596.46
2022-09-20T00:41:44.615Z,99598.01
2022-09-20T00:44:54.528Z,99601.65
2022-09-20T00:47:30.268Z,99604.96
2022-09-20T00:50:05.806Z,99606.20
2022-09-20T00:52:36.554Z,99607.81
2022-09-20T00:55:08.366Z,99605.77
2022-09-20T00:57:38.191Z,99605.13
2022-09-20T01:00:10.495Z,99601.94
2022-09-20T01:02:42.703Z,99603.41
2022-09-20T01:05:13.134Z,99602.71
2022-09-20T01:07:43.678Z,99602.40
2022-09-20T01:10:12.153Z,99602.13
2022-09-20T01:12:43.080Z,99606.16
2022-09-20T01:15:15.156Z,99604.08
2022-09-20T01:17:48.654Z,99608.09
2022-09-20T01:20:22.567Z,99611.80
2022-09-20T01:23:05.895Z,99607.23
2022-09-20T01:26:03.440Z,99609.49
2022-09-20T01:28:32.378Z,99604.58
2022-09-20T01:31:06.812Z,99601.58
2022-09-20T01:33:42.677Z,99602.95
2022-09-20T01:36:18.014Z,99602.66
2022-09-20T01:38:58.129Z,99604.77
2022-09-20T01:41:33.419Z,99607.34
2022-09-20T01:44:10.443Z,99608.55
2022-09-20T01:46:42.088Z,99606.89
2022-09-20T01:49:26.248Z,99606.39
2022-09-20T01:52:28.757Z,99608.30
2022-09-20T01:55:25.399Z,99605.67
2022-09-20T01:58:39.009Z,99604.65
2022-09-20T02:01:30.667Z,99607.23
2022-09-20T02:04:13.928Z,99605.45
2022-09-20T02:07:00.719Z,99609.10
2022-09-20T02:09:53.860Z,99605.98
2022-09-20T02:12:43.965Z,99610.29
2022-09-20T02:15:27.551Z,99614.21
2022-09-20T02:18:09.104Z,99614.67
2022-09-20T02:20:47.632Z,99617.30
2022-09-20T02:23:36.372Z,99618.95
2022-09-20T02:26:19.385Z,99617.96
2022-09-20T02:29:01.489Z,99619.61
2022-09-20T02:31:50.555Z,99620.26
2022-09-20T02:34:39.262Z,99623.70
2022-09-20T02:37:25.049Z,99627.78
2022-09-20T02:40:11.499Z,99628.51
2022-09-20T02:42:45.945Z,99634.53
2022-09-20T02:45:24.078Z,99633.52
2022-09-20T02:47:56.451Z,99632.36
2022-09-20T02:50:35.026Z,99637.13
2022-09-20T02:53:18.424Z,99636.01
2022-09-20T02:56:06.339Z,99638.09
2022-09-20T02:58:46.174Z,99640.88
2022-09-20T03:01:26.391Z,99644.23
2022-09-20T03:04:07.800Z,99649.52
2022-09-20T03:06:43.304Z,99649.52
2022-09-20T03:09:19.436Z,99648.42
2022-09-20T03:11:55.274Z,99650.89
2022-09-20T03:14:30.792Z,99651.88
2022-09-20T03:17:10.463Z,99650.86
2022-09-20T03:19:54.127Z,99652.30
2022-09-20T03:22:36.346Z,99649.95
2022-09-20T03:25:26.843Z,99652.36
2022-09-20T03:28:08.326Z,99653.08
2022-09-20T03:30:51.114Z,99657.65
2022-09-20T03:33:26.440Z,99651.95
2022-09-20T03:36:08.831Z,99651.76
2022-09-20T03:38:43.699Z,99651.86
2022-09-20T03:41:28.126Z,99648.92
2022-09-20T03:44:10.566Z,99647.21
2022-09-20T03:46:44.418Z,99646.33
2022-09-20T03:49:53.131Z,99648.61
2022-09-20T03:52:55.111Z,99654.22
2022-09-20T03:55:44.004Z,99655.54
2022-09-20T03:58:30.501Z,99656.58
2022-09-20T04:01:14.656Z,99659.80
2022-09-20T04:03:53.317Z,99660.05
2022-09-20T04:06:49.202Z,99660.01
2022-09-20T04:09:51.308Z,99665.39
2022-09-20T04:12:29.089Z,99667.61
2022-09-20T04:15:15.850Z,99669.45
2022-09-20T04:17:51.594Z,99666.29
2022-09-20T04:20:31.503Z,99667.15
2022-09-20T04:23:07.401Z,99662.23
2022-09-20T04:25:43.990Z,99668.30
2022-09-20T04:28:19.270Z,99669.74
2022-09-20T04:30:51.583Z,99668.54
2022-09-20T04:33:23.560Z,99669.03
2022-09-20T04:36:31.099Z,99678.77
2022-09-20T04:39:11.562Z,99676.89
2022-09-20T04:42:24.728Z,99678.17
2022-09-20T04:45:30.416Z,99676.88
2022-09-20T04:48:33.951Z,99678.59
2022-09-20T04:51:33.557Z,99678.59
2022-09-20T04:54:34.176Z,99679.84
2022-09-20T04:57:24.862Z,99678.35
2022-09-20T05:00:05.189Z,99686.51
2022-09-20T05:03:09.098Z,99685.17
2022-09-20T05:05:56.940Z,99686.42
2022-09-20T05:09:02.405Z,99685.77
2022-09-20T05:11:54.593Z,99689.95
2022-09-20T05:14:45.584Z,99690.89
2022-09-20T05:17:31.580Z,99693.34
2022-09-20T05:20:29.894Z,99697.12
2022-09-20T05:23:29.388Z,99701.73
2022-09-20T05:26:10.722Z,99707.91
2022-09-20T05:28:49.492Z,99706.79
2022-09-20T05:31:27.707Z,99713.16
2022-09-20T05:34:04.086Z,99713.42
2022-09-20T05:36:44.115Z,99717.73
2022-09-20T05:39:27.328Z,99720.73
2022-09-20T05:41:59.693Z,99723.84
2022-09-20T05:44:40.089Z,99726.56
2022-09-20T05:47:17.915Z,99725.45
2022-09-20T05:49:58.642Z,99732.69
2022-09-20T05:52:40.079Z,99732.94
2022-09-20T05:55:47.562Z,99732.96
2022-09-20T05:58:33.410Z,99737.49
2022-09-20T06:01:09.956Z,99740.05
2022-09-20T06:03:45.258Z,99741.08
2022-09-20T06:06:22.009Z,99738.50
2022-09-20T06:09:06.434Z,99741.14
2022-09-20T06:11:50.707Z,99739.23
2022-09-20T06:14:32.631Z,99738.85
2022-09-20T06:17:11.508Z,99737.60
2022-09-20T06:19:46.278Z,99740.94
2022-09-20T06:22:21.328Z,99739.50
2022-09-20T06:25:00.496Z,99737.79
2022-09-20T06:27:35.509Z,99739.67
2022-09-20T06:30:12.352Z,99741.19
2022-09-20T06:32:54.558Z,99743.25
2022-09-20T06:35:23.960Z,99741.95
2022-09-20T06:38:17.553Z,99744.52
2022-09-20T06:41:15.469Z,99739.82
2022-09-20T06:43:44.476Z,99743.66
2022-09-20T06:46:15.133Z,99745.89
2022-09-20T06:48:43.634Z,99747.50
2022-09-20T06:51:12.475Z,99749.79
2022-09-20T06:53:41.952Z,99747.77
2022-09-20T06:56:15.631Z,99746.02
2022-09-20T06:58:44.109Z,99747.63
2022-09-20T07:01:13.157Z,99743.14
2022-09-20T07:03:42.099Z,99743.91
2022-09-20T07:06:11.378Z,99742.63
2022-09-20T07:08:40.122Z,99745.17
2022-09-20T07:11:12.725Z,99747.27
2022-09-20T07:13:41.217Z,99750.08
2022-09-20T07:16:13.721Z,99752.16
2022-09-20T07:18:42.574Z,99754.54
2022-09-20T07:21:12.097Z,99759.58
2022-09-20T07:23:40.768Z,99762.84
2022-09-20T07:26:18.557Z,99768.66
2022-09-20T07:28:48.126Z,99774.30
2022-09-20T07:31:17.446Z,99776.02
2022-09-20T07:33:46.453Z,99776.30
2022-09-20T07:36:15.950Z,99782.20
2022-09-20T07:38:48.649Z,99778.09
2022-09-20T07:41:18.428Z,99779.33
2022-09-20T07:43:47.369Z,99784.72
2022-09-20T07:46:15.864Z,99788.47
2022-09-20T07:48:44.385Z,99794.14
2022-09-20T07:51:13.971Z,99792.60
2022-09-20T07:53:42.699Z,99796.79
2022-09-20T07:56:15.989Z,99800.91
2022-09-20T07:58:47.447Z,99804.80
2022-09-20T08:01:22.118Z,99806.83
2022-09-20T08:03:51.422Z,99812.26
2022-09-20T08:06:20.785Z,99817.86
2022-09-20T08:08:51.032Z,99820.04
2022-09-20T08:11:27.861Z,99817.21
2022-09-20T08:14:07.682Z,99824.52
2022-09-20T08:16:40.887Z,99829.40
2022-09-20T08:19:13.949Z,99833.60
2022-09-20T08:21:42.609Z,99834.40
2022-09-20T08:24:11.535Z,99832.27
2022-09-20T08:26:40.614Z,99827.64
2022-09-20T08:29:09.377Z,99831.98
2022-09-20T08:31:41.597Z,99828.57
2022-09-20T08:34:11.732Z,99834.39
2022-09-20T08:36:45.064Z,99833.98
2022-09-20T08:42:13.096Z,99834.06
2022-09-20T08:44:59.488Z,99831.19
2022-09-20T08:47:30.922Z,99833.90
2022-09-20T08:50:00.904Z,99835.26
2022-09-20T08:52:39.915Z,99835.58
2022-09-20T08:55:16.145Z,99839.45
2022-09-20T08:57:48.911Z,99843.80
2022-09-20T09:00:20.720Z,99847.77
2022-09-20T09:02:52.422Z,99841.62
2022-09-20T09:05:33.546Z,99846.83
2022-09-20T09:08:06.531Z,99844.77
2022-09-20T09:10:45.109Z,99847.16
2022-09-20T09:13:22.252Z,99845.02
2022-09-20T09:15:56.611Z,99843.16
2022-09-20T09:18:33.443Z,99845.51
2022-09-20T09:21:04.396Z,99843.05
2022-09-20T09:23:40.907Z,99846.75
2022-09-20T09:26:18.116Z,99840.71
2022-09-20T09:28:47.785Z,99845.27
2022-09-20T09:31:25.450Z,99845.12
2022-09-20T09:33:55.337Z,99844.31
2022-09-20T09:36:25.816Z,99843.59
2022-09-20T09:39:16.047Z,99847.13
2022-09-20T09:41:45.774Z,99851.57
2022-09-20T09:44:23.634Z,99842.67
2022-09-20T09:46:53.435Z,99846.27
2022-09-20T09:49:24.479Z,99847.11
2022-09-20T09:52:12.744Z,99841.34
2022-09-20T09:54:47.014Z,99844.89
2022-09-20T09:57:37.234Z,99842.59
2022-09-20T10:00:17.604Z,99845.40
2022-09-20T10:03:13.649Z,99841.18
2022-09-20T10:05:54.019Z,99838.23
2022-09-20T10:08:34.955Z,99839.59
2022-09-20T10:11:19.715Z,99840.52
2022-09-20T10:14:03.305Z,99838.11
2022-09-20T10:16:55.289Z,99841.24
2022-09-20T10:19:43.604Z,99836.88
2022-09-20T10:22:20.970Z,99831.71
2022-09-20T10:25:02.439Z,99835.17
2022-09-20T10:27:48.811Z,99836.10
2022-09-20T10:30:21.318Z,99837.13
2022-09-20T10:33:03.385Z,99835.61
2022-09-20T10:35:40.470Z,99838.15
2022-09-20T10:38:19.165Z,99839.36
2022-09-20T10:41:27.936Z,99839.77
2022-09-20T10:44:08.463Z,99836.65
2022-09-20T10:46:50.985Z,99836.71
2022-09-20T10:49:34.649Z,99836.86
2022-09-20T10:52:35.474Z,99836.04
2022-09-20T10:55:19.972Z,99832.02
2022-09-20T10:58:24.003Z,99828.64
2022-09-20T11:01:01.685Z,99828.17
2022-09-20T11:03:51.338Z,99830.73
2022-09-20T11:06:28.293Z,99836.92
2022-09-20T11:08:59.555Z,99838.52
2022-09-20T11:11:35.093Z,99837.95
2022-09-20T11:14:09.594Z,99835.36
2022-09-20T11:16:43.308Z,99836.02
2022-09-20T11:19:22.840Z,99832.90
2022-09-20T11:21:58.278Z,99833.63
2022-09-20T11:24:35.082Z,99836.41
2022-09-20T11:27:12.843Z,99835.11
2022-09-20T11:29:49.599Z,99835.52
2022-09-20T11:32:23.721Z,99833.77
2022-09-20T11:34:57.065Z,99829.79
2022-09-20T11:37:32.765Z,99827.58
2022-09-20T11:40:04.189Z,99826.46
2022-09-20T11:42:36.868Z,99825.73
2022-09-20T11:45:07.011Z,99827.98
2022-09-20T11:47:54.537Z,99829.14
2022-09-20T11:50:56.157Z,99829.05
2022-09-20T11:53:39.393Z,99829.80
2022-09-20T11:56:16.315Z,99829.79
2022-09-20T11:58:48.339Z,99831.11
2022-09-20T12:01:28.284Z,99828.39
2022-09-20T12:04:14.570Z,99826.95
2022-09-20T12:07:01.617Z,99824.10
2022-09-20T12:09:36.317Z,99819.27
2022-09-20T12:12:27.760Z,99814.71
2022-09-20T12:14:58.811Z,99813.29
2022-09-20T12:18:08.224Z,99809.39
2022-09-20T12:21:09.054Z,99802.86
2022-09-20T12:24:18.841Z,99802.19
2022-09-20T12:26:50.347Z,99801.80
2022-09-20T12:30:10.229Z,99800.98
2022-09-20T12:32:52.050Z,99802.20
2022-09-20T12:35:58.733Z,99799.61
2022-09-20T12:38:33.757Z,99800.13
2022-09-20T12:41:08.147Z,99805.89
2022-09-20T12:43:47.824Z,99805.27
2022-09-20T12:46:24.140Z,99810.02
2022-09-20T12:49:09.991Z,99807.02
2022-09-20T12:51:57.168Z,99810.73
2022-09-20T12:54:25.770Z,99809.71
2022-09-20T12:56:55.641Z,99814.42
2022-09-20T12:59:30.443Z,99813.42
2022-09-20T13:02:42.237Z,99819.42
2022-09-20T13:05:32.970Z,99817.20
2022-09-20T13:08:04.719Z,99816.02
2022-09-20T13:10:39.146Z,99817.30
2022-09-20T13:13:26.990Z,99817.57
2022-09-20T13:15:57.029Z,99817.73
2022-09-20T13:18:27.290Z,99826.55
2022-09-20T13:20:59.951Z,99826.13
2022-09-20T13:23:31.504Z,99824.99
2022-09-20T13:26:03.294Z,99830.10
2022-09-20T13:28:39.713Z,99830.88
2022-09-20T13:31:24.554Z,99828.66
2022-09-20T13:33:53.635Z,99827.75
2022-09-20T13:36:31.099Z,99830.45
2022-09-20T13:38:59.594Z,99833.05
2022-09-20T13:41:31.946Z,99836.23
2022-09-20T13:44:04.712Z,99836.13
2022-09-20T13:46:33.919Z,99835.70
2022-09-20T13:49:20.317Z,99841.44
2022-09-20T13:51:49.296Z,99838.02
2022-09-20T13:54:27.340Z,99842.15
2022-09-20T13:57:01.230Z,99834.71
2022-09-20T13:59:36.118Z,99831.81
2022-09-20T14:02:04.743Z,99836.38
2022-09-20T14:04:33.828Z,99839.29
2022-09-20T14:07:08.115Z,99844.11
2022-09-20T14:09:38.987Z,99844.65
2022-09-20T14:12:11.061Z,99845.29
2022-09-20T14:14:46.137Z,99844.25
2022-09-20T14:17:26.479Z,99846.00
2022-09-20T14:20:01.664Z,99848.16
2022-09-20T14:22:31.862Z,99852.20
2022-09-20T14:25:19.240Z,99854.52
2022-09-20T14:27:48.641Z,99854.49
2022-09-20T14:30:35.991Z,99855.23
2022-09-20T14:33:15.330Z,99856.83
2022-09-20T14:35:49.051Z,99856.50
2022-09-20T14:38:22.325Z,99863.39
2022-09-20T14:40:52.097Z,99861.98
2022-09-20T14:43:31.126Z,99863.73
2022-09-20T14:46:03.473Z,99868.34
2022-09-20T14:48:37.175Z,99871.73
2022-09-20T14:51:26.196Z,99871.56
2022-09-20T14:54:27.429Z,99877.31
2022-09-20T14:56:58.268Z,99873.81
2022-09-20T14:59:29.688Z,99877.45
2022-09-20T15:02:03.494Z,99878.21
2022-09-20T15:04:34.778Z,99877.37
2022-09-20T15:07:06.527Z,99875.02
2022-09-20T15:09:35.515Z,99872.88
2022-09-20T15:12:06.747Z,99878.79
2022-09-20T15:14:37.942Z,99880.17
2022-09-20T15:17:09.373Z,99885.57
2022-09-20T15:19:38.476Z,99888.04
2022-09-20T15:22:09.032Z,99889.57
2022-09-20T15:24:37.817Z,99887.52
2022-09-20T15:27:07.054Z,99884.77
2022-09-20T15:29:35.543Z,99885.09
2022-09-20T15:32:05.283Z,99887.03
2022-09-20T15:34:34.122Z,99888.55
2022-09-20T15:37:03.051Z,99890.73
2022-09-20T15:39:31.593Z,99890.63
2022-09-20T15:42:01.900Z,99896.60
2022-09-20T15:44:32.053Z,99897.71
2022-09-20T15:47:01.094Z,99901.82
2022-09-20T15:49:31.640Z,99904.48
2022-09-20T15:52:02.153Z,99905.20
2022-09-20T15:54:31.365Z,99905.48
2022-09-20T15:56:59.976Z,99908.92
2022-09-20T15:59:28.831Z,99910.92
2022-09-20T16:01:58.297Z,99917.73
2022-09-20T16:04:27.477Z,99916.07
2022-09-20T16:06:56.303Z,99915.61
2022-09-20T16:09:27.093Z,99917.33
2022-09-20T16:11:58.445Z,99920.98
2022-09-20T16:14:28.424Z,99924.45
2022-09-20T16:17:00.939Z,99928.58
2022-09-20T16:19:30.408Z,99925.10
2022-09-20T16:22:05.029Z,99932.59
2022-09-20T16:24:36.337Z,99936.27
2022-09-20T16:27:07.553Z,99936.35
2022-09-20T16:29:36.389Z,99935.34
2022-09-20T16:32:05.382Z,99937.48
2022-09-20T16:34:36.169Z,99938.64
2022-09-20T16:37:11.767Z,99941.52
2022-09-20T16:39:41.774Z,99940.19
2022-09-20T16:42:13.027Z,99945.71
2022-09-20T16:44:43.115Z,99946.11
2022-09-20T16:47:17.947Z,99950.14
2022-09-20T16:49:47.459Z,99955.54
2022-09-20T16:52:16.587Z,99963.08
2022-09-20T16:54:45.525Z,99967.83
2022-09-20T16:57:15.083Z,99967.95
2022-09-20T16:59:46.387Z,99969.73
2022-09-20T17:02:16.927Z,99972.02
2022-09-20T17:04:47.038Z,99977.03
2022-09-20T17:07:15.816Z,99981.35
2022-09-20T17:09:44.701Z,99982.71
2022-09-20T17:12:18.884Z,99988.59
2022-09-20T17:14:48.110Z,99987.65
2022-09-20T17:17:18.253Z,99993.71
2022-09-20T17:19:47.763Z,99996.79
2022-09-20T17:22:18.596Z,99999.60
2022-09-20T17:24:50.731Z,100001.92
2022-09-20T17:27:24.098Z,100002.46
2022-09-20T17:29:57.516Z,100010.76
2022-09-20T17:32:27.514Z,100014.08
2022-09-20T17:34:58.497Z,100018.48
2022-09-20T17:37:28.747Z,100016.49
2022-09-20T17:40:02.472Z,100022.70
2022-09-20T17:42:40.085Z,100025.05
2022-09-20T17:45:10.471Z,100022.39
2022-09-20T17:47:43.689Z,100026.29
2022-09-20T17:50:15.456Z,100025.38
2022-09-20T17:52:46.939Z,100028.26
2022-09-20T17:55:17.683Z,100031.21
2022-09-20T17:57:48.580Z,100035.58
2022-09-20T18:00:25.452Z,100038.48
2022-09-20T18:02:53.900Z,100042.02
2022-09-20T18:05:22.359Z,100046.64
2022-09-20T18:07:53.367Z,100052.17
2022-09-20T18:10:22.118Z,100051.79
2022-09-20T18:12:50.781Z,100054.19
2022-09-20T18:15:19.417Z,100056.67
2022-09-20T18:17:51.339Z,100061.79
2022-09-20T18:20:23.157Z,100067.04
2022-09-20T18:22:52.330Z,100069.88
2022-09-20T18:25:23.543Z,100071.67
2022-09-20T18:27:52.617Z,100073.11
2022-09-20T18:30:21.344Z,100074.66
2022-09-20T18:32:52.207Z,100073.48
2022-09-20T18:35:21.093Z,100076.84
2022-09-20T18:37:50.332Z,100081.69
2022-09-20T18:40:22.689Z,100085.98
2022-09-20T18:42:55.058Z,100089.44
2022-09-20T18:45:25.447Z,100087.95
2022-09-20T18:47:56.937Z,100087.23
2022-09-20T18:50:26.205Z,100087.02
2022-09-20T18:52:55.553Z,100089.64
2022-09-20T18:55:25.919Z,100088.47
2022-09-20T18:57:59.374Z,100090.00
2022-09-20T19:00:32.875Z,100095.00
2022-09-20T19:03:12.643Z,100098.98
2022-09-20T19:05:48.660Z,100104.85
2022-09-20T19:08:25.782Z,100107.34
2022-09-20T19:10:59.039Z,100105.31
2022-09-20T19:13:39.930Z,100103.90
2022-09-20T19:16:17.688Z,100108.94
2022-09-20T19:19:24.300Z,100111.08
2022-09-20T19:22:01.317Z,100111.79
2022-09-20T19:24:45.186Z,100111.58
2022-09-20T19:27:15.283Z,100114.91
2022-09-20T19:29:45.813Z,100113.20
2022-09-20T19:32:21.156Z,100122.31
2022-09-20T19:34:54.436Z,100125.70
2022-09-20T19:37:32.642Z,100128.45
2022-09-20T19:40:18.239Z,100131.29
2022-09-20T19:42:59.582Z,100131.82
2022-09-20T19:45:50.271Z,100132.52
2022-09-20T19:48:26.972Z,100133.71
2022-09-20T19:50:57.364Z,100132.86
2022-09-20T19:53:28.218Z,100130.61
2022-09-20T19:56:01.852Z,100129.83
2022-09-20T19:58:32.156Z,100131.92
2022-09-20T20:01:01.595Z,100136.08
2022-09-20T20:03:31.492Z,100138.23
2022-09-20T20:06:08.246Z,100135.58
2022-09-20T20:08:42.825Z,100137.56
2022-09-20T20:11:28.969Z,100138.42
2022-09-20T20:14:06.781Z,100138.68
2022-09-20T20:16:48.356Z,100144.88
2022-09-20T20:19:34.661Z,100147.15
2022-09-20T20:22:12.197Z,100150.48
2022-09-20T20:24:50.437Z,100150.01
2022-09-20T20:27:19.857Z,100154.86
2022-09-20T20:29:48.876Z,100153.40
2022-09-20T20:32:17.657Z,100156.55
2022-09-20T20:34:46.352Z,100159.77
2022-09-20T20:37:15.513Z,100158.23
2022-09-20T20:39:44.116Z,100160.79
2022-09-20T20:42:12.718Z,100162.20
2022-09-20T20:44:42.693Z,100162.13
2022-09-20T20:47:11.266Z,100164.86
2022-09-20T20:49:39.960Z,100164.42
2022-09-20T20:52:09.070Z,100168.28
2022-09-20T20:54:37.532Z,100169.16
2022-09-20T20:57:06.115Z,100170.76
2022-09-20T20:59:34.755Z,100168.27
2022-09-20T21:02:07.983Z,100172.46
2022-09-20T21:04:36.702Z,100172.28
2022-09-20T21:07:05.391Z,100173.13
2022-09-20T21:09:34.208Z,100171.66
2022-09-20T21:12:03.456Z,100175.27
2022-09-20T21:14:33.271Z,100175.52
2022-09-20T21:17:03.076Z,100176.00
2022-09-20T21:19:31.606Z,100178.81
2022-09-20T21:22:00.062Z,100176.99
2022-09-20T21:24:28.794Z,100179.95
2022-09-20T21:26:57.195Z,100178.80
2022-09-20T21:29:25.896Z,100181.85
2022-09-20T21:31:55.469Z,100178.70
2022-09-20T21:34:24.361Z,100179.13
2022-09-20T21:36:54.639Z,100178.73
2022-09-20T21:39:23.268Z,100178.77
2022-09-20T21:41:54.392Z,100181.64
2022-09-20T21:44:22.918Z,100182.88
2022-09-20T21:46:53.581Z,100184.97
2022-09-20T21:49:22.175Z,100186.60
2022-09-20T21:51:52.778Z,100190.84
2022-09-20T21:54:21.362Z,100192.05
2022-09-20T21:56:49.936Z,100195.40
2022-09-20T21:59:19.815Z,100195.85
2022-09-20T22:01:48.820Z,100197.20
2022-09-20T22:04:17.107Z,100199.73
2022-09-20T22:06:45.986Z,100201.77
2022-09-20T22:09:16.281Z,100202.20
2022-09-20T22:11:47.797Z,100200.48
2022-09-20T22:14:18.936Z,100201.39
2022-09-20T22:16:48.648Z,100200.77
2022-09-20T22:19:18.236Z,100198.66
2022-09-20T22:21:48.221Z,100195.11
2022-09-20T22:24:17.510Z,100198.95
2022-09-20T22:26:48.238Z,100197.71
2022-09-20T22:29:17.638Z,100199.97
2022-09-20T22:31:48.540Z,100203.17
2022-09-20T22:34:19.428Z,100203.52
2022-09-20T22:36:48.778Z,100205.17
2022-09-20T22:39:17.653Z,100207.01
2022-09-20T22:41:47.483Z,100208.33
2022-09-20T22:44:15.891Z,100210.00
2022-09-20T22:46:50.875Z,100209.42
2022-09-20T22:49:19.301Z,100207.29
2022-09-20T22:51:47.814Z,100209.96
2022-09-20T22:54:16.279Z,100209.00
2022-09-20T22:56:44.995Z,100212.74
2022-09-20T22:59:14.642Z,100208.30
2022-09-20T23:01:45.061Z,100209.77
2022-09-20T23:04:15.892Z,100210.48
2022-09-20T23:06:47.168Z,100208.45
2022-09-20T23:09:17.620Z,100208.93
2022-09-20T23:11:47.343Z,100214.90
2022-09-20T23:14:17.987Z,100215.23
2022-09-20T23:16:47.059Z,100216.71
2022-09-20T23:19:16.393Z,100212.08
2022-09-20T23:21:44.903Z,100213.92
2022-09-20T23:24:14.913Z,100214.88
2022-09-20T23:26:44.303Z,100219.20
2022-09-20T23:29:14.962Z,100217.61
2022-09-20T23:31:46.877Z,100219.02
2022-09-20T23:34:18.165Z,100221.48
2022-09-20T23:36:47.530Z,100218.52
2022-09-20T23:39:16.282Z,100220.48
2022-09-20T23:41:49.866Z,100218.79
2022-09-20T23:44:18.701Z,100220.65
2022-09-20T23:46:47.335Z,100220.38
2022-09-20T23:49:15.878Z,100223.55
2022-09-20T23:51:44.361Z,100227.48
2022-09-20T23:54:12.911Z,100229.17
2022-09-20T23:56:42.172Z,100231.85
2022-09-20T23:59:10.699Z,100236.78
